Cambridge Bay Airport
CYCB : now visible

Airfield :











YOU CAN JOIN US ON...

 
LOGIN :

Register | Disclaimer

   EN    FR    IT 

 









Legend :    VFR   Marginal VFR   IFR   Intensive IFR   Very Intensive IFR
Visi :
Ceiling :
>= 8 km
>= 3000ft
5 to 8 km
1000 to 3000 ft
1500m to 5 km
500 to 1000 ft
800 to 1500m
200 to 500 ft
< 800m
< 200 ft
Symbols :   Thunderstorms  Fog  Heavy snow  Heavy precipitations  Wind > 20 kt






- Airport Elevation : 90 ft
- IATA code : YCB


CYCB - Cambridge Bay

CURRENT METAR :
  • 150700Z 30011KT 5SM IC DRSN FEW015 SCT055 BKN075 M29/M33 A2970 RMK SC1SC2AC2 FROIN SLP065

EXPIRED METARs :
  • 150600Z 29011KT 3SM IC DRSN FEW015 SCT033 BKN075 M28/M32 A2970 RMK SC1SC2AC2 FROIN SLP065
  • 150500Z 33006G15KT 3SM IC DRSN FEW015 SCT034 BKN075 M28/M32 A2970 RMK SC1SC2AC2 FROIN SLP066

TAF TAF CYCB
Valid from the 15 at 07:00 until the 15 at 19:00 UTC


150638Z 1507/1519 30010KT P6SM IC BKN030 BKN080
TEMPO 1507/1519 3SM -SN IC BKN020
BECMG 1508/1510 32012KT RMK NXT FCST BY 151300Z



MET'MAP, your aeronautical weather chart ! - Copyright ORBIFLY December 2007 - Disclaimer

ORBIFLY MET'MAP TEAM :

Programming & Development : Alexandra Zaïnal
Concept & original design : Baudouin d'Aumeries
Assistance for programming : Marc-Olivier Méhu
Technical & hardware support : Manuel Goepfert

Contact : metmap@orbifly.com




SOURCES & CREDITS :

   NOAA       Earth
Advisory